createdAt,value
2019-06-27T00:01:28.373Z,60.06
2019-06-27T00:03:58.567Z,60.38
2019-06-27T00:06:28.667Z,60.44
2019-06-27T00:08:58.602Z,60.87
2019-06-27T00:11:28.626Z,61.31
2019-06-27T00:13:58.704Z,61.20
2019-06-27T00:16:28.893Z,61.17
2019-06-27T00:18:58.875Z,61.20
2019-06-27T00:21:29.094Z,61.59
2019-06-27T00:23:59.042Z,62.15
2019-06-27T00:26:29.278Z,62.72
2019-06-27T00:28:59.213Z,63.07
2019-06-27T00:31:29.281Z,63.35
2019-06-27T00:33:59.848Z,63.96
2019-06-27T00:36:29.851Z,63.49
2019-06-27T00:38:59.763Z,63.85
2019-06-27T00:41:29.744Z,63.94
2019-06-27T00:43:59.666Z,63.93
2019-06-27T00:46:29.649Z,64.13
2019-06-27T00:48:59.614Z,63.99
2019-06-27T00:51:29.594Z,63.93
2019-06-27T00:53:59.506Z,63.75
2019-06-27T00:56:29.553Z,63.78
2019-06-27T00:58:59.468Z,63.92
2019-06-27T01:01:29.583Z,64.31
2019-06-27T01:03:59.524Z,64.15
2019-06-27T01:06:29.472Z,64.58
2019-06-27T01:08:59.464Z,64.70
2019-06-27T01:11:29.435Z,64.85
2019-06-27T01:13:59.444Z,64.85
2019-06-27T01:16:29.377Z,65.09
2019-06-27T01:18:59.315Z,65.50
2019-06-27T01:21:29.244Z,65.39
2019-06-27T01:23:59.250Z,65.35
2019-06-27T01:26:29.266Z,64.26
2019-06-27T01:28:59.201Z,64.22
2019-06-27T01:31:29.267Z,64.57
2019-06-27T01:33:59.236Z,64.77
2019-06-27T01:36:29.234Z,64.76
2019-06-27T01:38:59.175Z,65.23
2019-06-27T01:41:29.114Z,65.28
2019-06-27T01:43:59.122Z,65.49
2019-06-27T01:46:29.030Z,65.84
2019-06-27T01:48:59.011Z,66.12
2019-06-27T01:51:28.925Z,66.51
2019-06-27T01:53:58.853Z,66.89
2019-06-27T01:56:28.787Z,67.01
2019-06-27T01:58:58.729Z,66.79
2019-06-27T02:01:28.680Z,67.48
2019-06-27T02:03:58.617Z,67.33
2019-06-27T02:06:28.566Z,67.66
2019-06-27T02:08:58.469Z,66.89
2019-06-27T02:11:28.395Z,66.87
2019-06-27T02:13:58.399Z,67.15
2019-06-27T02:16:28.349Z,67.34
2019-06-27T02:18:58.288Z,66.70
2019-06-27T02:21:28.204Z,66.84
2019-06-27T02:23:58.254Z,66.92
2019-06-27T02:26:28.261Z,66.93
2019-06-27T02:28:58.164Z,66.96
2019-06-27T02:31:28.194Z,67.18
2019-06-27T02:33:58.125Z,66.96
2019-06-27T02:36:28.345Z,66.63
2019-06-27T02:38:58.444Z,66.84
2019-06-27T02:41:28.382Z,66.89
2019-06-27T02:43:58.361Z,66.98
2019-06-27T02:46:28.280Z,66.82
2019-06-27T02:48:58.217Z,66.80
2019-06-27T02:51:28.213Z,66.85
2019-06-27T02:53:58.215Z,67.22
2019-06-27T02:56:28.217Z,66.99
2019-06-27T02:58:58.130Z,67.02
2019-06-27T03:01:28.146Z,67.15
2019-06-27T03:03:58.085Z,67.20
2019-06-27T03:06:28.105Z,67.50
2019-06-27T03:08:58.255Z,67.64
2019-06-27T03:11:28.188Z,67.77
2019-06-27T03:13:58.346Z,67.81
2019-06-27T03:16:28.275Z,67.87
2019-06-27T03:18:58.222Z,67.83
2019-06-27T03:21:28.222Z,67.80
2019-06-27T03:23:58.215Z,67.94
2019-06-27T03:26:28.168Z,67.92
2019-06-27T03:28:58.112Z,68.03
2019-06-27T03:31:28.064Z,68.02
2019-06-27T03:33:57.976Z,68.21
2019-06-27T03:36:27.908Z,68.25
2019-06-27T03:38:57.880Z,68.61
2019-06-27T03:41:27.827Z,68.43
2019-06-27T03:43:57.780Z,68.43
2019-06-27T03:46:27.701Z,68.39
2019-06-27T03:48:57.616Z,68.25
2019-06-27T03:51:27.526Z,68.24
2019-06-27T03:53:57.458Z,68.12
2019-06-27T03:56:27.410Z,68.22
2019-06-27T03:59:11.367Z,67.89
2019-06-27T04:01:29.437Z,67.77
2019-06-27T04:03:59.450Z,67.70
2019-06-27T04:06:29.400Z,67.92
2019-06-27T04:08:59.365Z,68.09
2019-06-27T04:11:29.566Z,67.99
2019-06-27T04:13:59.950Z,68.19
2019-06-27T04:16:29.932Z,68.10
2019-06-27T04:19:00.180Z,68.20
2019-06-27T04:21:30.716Z,68.06
2019-06-27T04:24:04.738Z,68.03
2019-06-27T04:26:34.771Z,68.18
2019-06-27T04:29:04.854Z,68.25
2019-06-27T04:31:34.849Z,67.98
2019-06-27T04:34:05.040Z,67.53
2019-06-27T04:36:35.133Z,67.23
2019-06-27T04:39:06.523Z,66.91
2019-06-27T04:41:36.576Z,66.73
2019-06-27T04:44:06.601Z,66.36
2019-06-27T04:46:36.525Z,66.04
2019-06-27T04:49:06.519Z,65.72
2019-06-27T04:51:36.445Z,65.81
2019-06-27T04:54:06.449Z,65.31
2019-06-27T04:56:36.369Z,65.28
2019-06-27T04:59:06.353Z,64.56
2019-06-27T05:01:36.471Z,63.99
2019-06-27T05:04:06.374Z,63.93
2019-06-27T05:06:36.438Z,63.17
2019-06-27T05:09:06.639Z,62.43
2019-06-27T05:11:36.594Z,61.51
2019-06-27T05:14:06.579Z,59.14
2019-06-27T05:16:36.536Z,55.53
2019-06-27T05:19:06.466Z,53.83
2019-06-27T05:21:36.365Z,51.54
2019-06-27T05:24:06.358Z,50.17
2019-06-27T05:26:36.362Z,47.63
2019-06-27T05:29:06.288Z,45.85
2019-06-27T05:31:36.307Z,43.84
2019-06-27T05:34:06.436Z,41.83
2019-06-27T05:36:36.388Z,41.29
2019-06-27T05:39:06.844Z,40.66
2019-06-27T05:41:36.790Z,40.10
2019-06-27T05:44:06.796Z,40.59
2019-06-27T05:46:36.800Z,41.05
2019-06-27T05:49:06.726Z,40.77
2019-06-27T05:51:36.656Z,44.79
2019-06-27T05:54:06.711Z,46.01
2019-06-27T05:56:36.641Z,46.57
2019-06-27T05:59:06.719Z,43.58
2019-06-27T06:01:36.652Z,42.84
2019-06-27T06:04:06.631Z,44.08
2019-06-27T06:06:36.611Z,44.77
2019-06-27T06:09:06.932Z,43.60
2019-06-27T06:11:36.949Z,44.42
2019-06-27T06:14:06.842Z,45.46
2019-06-27T06:16:36.835Z,43.14
2019-06-27T06:19:06.881Z,42.69
2019-06-27T06:21:36.859Z,44.10
2019-06-27T06:24:06.866Z,46.53
2019-06-27T06:26:36.778Z,47.19
2019-06-27T06:29:06.778Z,45.11
2019-06-27T06:31:36.679Z,43.11
2019-06-27T06:34:06.769Z,41.38
2019-06-27T06:36:36.670Z,39.53
2019-06-27T06:39:06.851Z,38.92
2019-06-27T06:41:36.773Z,41.38
2019-06-27T06:44:06.757Z,41.80
2019-06-27T06:46:36.791Z,41.30
2019-06-27T06:49:06.692Z,38.79
2019-06-27T06:51:36.674Z,36.91
2019-06-27T06:54:06.749Z,33.74
2019-06-27T06:56:36.740Z,33.67
2019-06-27T06:59:06.925Z,33.18
2019-06-27T07:01:37.011Z,32.86
2019-06-27T07:04:06.925Z,34.50
2019-06-27T07:06:36.819Z,36.01
2019-06-27T07:09:07.234Z,35.92
2019-06-27T07:11:37.238Z,33.61
2019-06-27T07:14:07.375Z,34.00
2019-06-27T07:16:37.280Z,29.68
2019-06-27T07:19:07.191Z,31.21
2019-06-27T07:21:37.108Z,33.36
2019-06-27T07:24:07.112Z,33.35
2019-06-27T07:26:37.108Z,32.29
2019-06-27T07:29:07.032Z,32.01
2019-06-27T07:31:36.992Z,29.82
2019-06-27T07:34:06.899Z,27.27
2019-06-27T07:36:36.818Z,27.97
2019-06-27T07:39:06.824Z,27.19
2019-06-27T07:41:37.289Z,26.32
2019-06-27T07:44:07.382Z,27.38
2019-06-27T07:46:37.414Z,26.31
2019-06-27T07:49:07.344Z,24.43
2019-06-27T07:51:37.265Z,24.68
2019-06-27T07:54:07.441Z,23.65
2019-06-27T07:56:37.334Z,25.04
2019-06-27T07:59:07.237Z,26.31
2019-06-27T08:01:37.249Z,25.86
2019-06-27T08:04:07.182Z,25.05
2019-06-27T08:06:37.171Z,24.41
2019-06-27T08:09:07.184Z,23.89
2019-06-27T08:11:37.125Z,24.42
2019-06-27T08:14:07.078Z,22.51
2019-06-27T08:16:37.033Z,23.35
2019-06-27T08:19:07.087Z,23.18
2019-06-27T08:21:36.981Z,22.24
2019-06-27T08:24:07.202Z,21.98
2019-06-27T08:26:37.088Z,23.15
2019-06-27T08:29:07.286Z,22.07
2019-06-27T08:31:50.524Z,22.84
2019-06-27T08:34:09.047Z,22.42
2019-06-27T08:36:39.051Z,22.21
2019-06-27T08:39:09.157Z,21.80
2019-06-27T08:41:39.208Z,22.51
2019-06-27T08:44:09.146Z,23.60
2019-06-27T08:46:39.311Z,23.85
2019-06-27T08:49:09.396Z,23.99
2019-06-27T08:51:39.340Z,22.71
2019-06-27T08:54:09.293Z,22.46
2019-06-27T08:56:39.204Z,24.06
2019-06-27T08:59:09.104Z,23.09
2019-06-27T09:01:39.082Z,24.06
2019-06-27T09:04:09.009Z,24.17
2019-06-27T09:06:39.012Z,24.03
2019-06-27T09:09:09.087Z,23.55
2019-06-27T09:11:44.190Z,21.23
2019-06-27T09:14:25.764Z,21.06
2019-06-27T09:16:55.637Z,22.27
2019-06-27T09:19:26.297Z,22.25
2019-06-27T09:21:56.298Z,21.21
2019-06-27T09:24:26.218Z,20.94
2019-06-27T09:26:57.129Z,20.96
2019-06-27T09:29:27.016Z,22.41
2019-06-27T09:31:57.027Z,22.22
2019-06-27T09:34:26.924Z,21.39
2019-06-27T09:36:56.854Z,21.87
2019-06-27T09:39:27.168Z,21.42
2019-06-27T09:41:57.331Z,21.64
2019-06-27T09:44:27.288Z,21.56
2019-06-27T09:46:57.421Z,23.04
2019-06-27T09:49:27.494Z,22.17
2019-06-27T09:51:57.491Z,22.14
2019-06-27T09:54:27.475Z,22.71
2019-06-27T09:56:57.451Z,23.56
2019-06-27T09:59:27.379Z,21.72
2019-06-27T10:01:57.392Z,21.66
2019-06-27T10:04:27.459Z,21.70
2019-06-27T10:06:57.504Z,20.32
2019-06-27T10:09:27.433Z,21.01
2019-06-27T10:11:57.487Z,21.39
2019-06-27T10:14:29.079Z,21.06
2019-06-27T10:16:58.986Z,21.78
2019-06-27T10:19:28.924Z,19.91
2019-06-27T10:21:58.916Z,19.31
2019-06-27T10:24:29.123Z,20.00
2019-06-27T10:26:59.485Z,20.57
2019-06-27T10:29:29.493Z,19.63
2019-06-27T10:31:59.440Z,19.71
2019-06-27T10:34:29.374Z,19.75
2019-06-27T10:36:59.324Z,19.91
2019-06-27T10:39:29.238Z,21.58
2019-06-27T10:41:59.242Z,20.84
2019-06-27T10:44:29.179Z,20.78
2019-06-27T10:46:59.094Z,20.40
2019-06-27T10:49:29.036Z,20.39
2019-06-27T10:51:59.021Z,21.09
2019-06-27T10:54:29.017Z,20.12
2019-06-27T10:56:59.605Z,20.59
2019-06-27T10:59:29.530Z,20.58
2019-06-27T11:01:59.446Z,21.24
2019-06-27T11:04:29.393Z,20.95
2019-06-27T11:06:59.349Z,19.40
2019-06-27T11:09:29.249Z,19.67
2019-06-27T11:11:59.202Z,20.64
2019-06-27T11:14:29.261Z,20.25
2019-06-27T11:16:59.178Z,21.28
2019-06-27T11:19:29.165Z,21.18
2019-06-27T11:21:59.154Z,21.16
2019-06-27T11:24:29.156Z,22.00
2019-06-27T11:26:59.189Z,21.08
2019-06-27T11:29:29.156Z,22.05
2019-06-27T11:31:59.097Z,22.51
2019-06-27T11:34:29.064Z,22.33
2019-06-27T11:36:59.033Z,21.70
2019-06-27T11:39:28.956Z,21.87
2019-06-27T11:41:58.920Z,21.62
2019-06-27T11:44:29.009Z,20.94
2019-06-27T11:46:58.940Z,21.11
2019-06-27T11:49:28.895Z,22.04
2019-06-27T11:51:58.826Z,22.65
2019-06-27T11:54:28.759Z,22.14
2019-06-27T11:56:58.773Z,22.14
2019-06-27T11:59:28.897Z,21.76
2019-06-27T12:01:58.822Z,20.61
2019-06-27T12:04:28.813Z,22.24
2019-06-27T12:06:58.768Z,21.27
2019-06-27T12:09:28.685Z,21.56
2019-06-27T12:11:58.632Z,21.30
2019-06-27T12:14:28.755Z,21.28
2019-06-27T12:16:58.699Z,22.19
2019-06-27T12:19:28.707Z,22.88
2019-06-27T12:21:58.612Z,23.00
2019-06-27T12:24:28.575Z,23.34
2019-06-27T12:26:59.730Z,23.51
2019-06-27T12:29:31.921Z,22.85
2019-06-27T12:32:03.344Z,22.57
2019-06-27T12:34:33.516Z,23.50
2019-06-27T12:37:03.557Z,23.24
2019-06-27T12:39:33.595Z,24.45
2019-06-27T12:42:03.698Z,24.44
2019-06-27T12:44:34.034Z,24.28
2019-06-27T12:47:03.946Z,25.47
2019-06-27T12:49:50.110Z,23.99
2019-06-27T12:52:05.666Z,24.36
2019-06-27T12:54:35.895Z,23.09
2019-06-27T12:57:05.958Z,23.14
2019-06-27T12:59:35.877Z,22.40
2019-06-27T13:02:06.450Z,21.63
2019-06-27T13:04:36.392Z,20.33
2019-06-27T13:07:06.528Z,21.34
2019-06-27T13:09:36.542Z,22.81
2019-06-27T13:12:07.930Z,22.98
2019-06-27T13:14:37.848Z,24.36
2019-06-27T13:17:07.751Z,23.96
2019-06-27T13:19:39.784Z,23.94
2019-06-27T13:22:09.638Z,24.32
2019-06-27T13:24:39.696Z,23.05
2019-06-27T13:27:09.743Z,22.90
2019-06-27T13:29:39.820Z,21.82
2019-06-27T13:32:09.974Z,23.39
2019-06-27T13:34:41.434Z,23.90
2019-06-27T13:37:11.697Z,23.95
2019-06-27T13:39:41.640Z,23.41
2019-06-27T13:42:12.944Z,22.90
2019-06-27T13:44:44.675Z,22.82
2019-06-27T13:47:14.795Z,23.33
2019-06-27T13:49:45.357Z,24.05
2019-06-27T13:52:15.576Z,24.00
2019-06-27T13:54:47.362Z,23.47
2019-06-27T13:57:18.875Z,22.86
2019-06-27T13:59:50.635Z,23.43
2019-06-27T14:02:20.687Z,23.34
2019-06-27T14:04:57.469Z,23.06
2019-06-27T14:07:26.451Z,23.92
2019-06-27T14:09:57.626Z,24.18
2019-06-27T14:12:28.013Z,24.21
2019-06-27T14:15:00.195Z,24.55
2019-06-27T14:17:29.795Z,23.14
2019-06-27T14:20:00.958Z,22.83
2019-06-27T14:22:33.954Z,23.27
2019-06-27T14:25:02.733Z,23.24
2019-06-27T14:27:32.807Z,23.38
2019-06-27T14:30:02.762Z,22.69
2019-06-27T14:32:32.753Z,24.22
2019-06-27T14:35:14.765Z,24.11
2019-06-27T14:37:34.396Z,24.22
2019-06-27T14:40:04.763Z,23.43
2019-06-27T14:42:34.687Z,23.09
2019-06-27T14:45:07.266Z,23.70
2019-06-27T14:47:37.957Z,23.40
2019-06-27T14:50:09.447Z,22.99
2019-06-27T14:52:41.001Z,23.17
2019-06-27T14:55:12.459Z,23.57
2019-06-27T14:57:43.153Z,23.19
2019-06-27T15:00:15.386Z,23.19
2019-06-27T15:02:48.405Z,22.65
2019-06-27T15:05:31.790Z,22.92
2019-06-27T15:07:51.645Z,22.06
2019-06-27T15:10:22.786Z,22.67
2019-06-27T15:12:57.337Z,23.11
2019-06-27T15:15:25.381Z,30.45
2019-06-27T15:17:55.763Z,23.89
2019-06-27T15:20:26.223Z,26.62
2019-06-27T15:22:56.773Z,24.33
2019-06-27T15:25:28.431Z,24.80
2019-06-27T15:27:58.999Z,25.76
2019-06-27T15:30:30.676Z,24.34
2019-06-27T15:33:00.568Z,23.25
2019-06-27T15:35:33.557Z,25.38
2019-06-27T15:38:02.103Z,23.25
2019-06-27T15:40:31.982Z,23.43
2019-06-27T15:43:02.012Z,22.99
2019-06-27T15:45:31.942Z,23.84
2019-06-27T15:48:01.853Z,22.99
2019-06-27T15:50:31.804Z,22.95
2019-06-27T15:53:01.798Z,24.58
2019-06-27T15:55:31.799Z,23.36
2019-06-27T15:58:01.842Z,23.33
2019-06-27T16:00:31.766Z,22.56
2019-06-27T16:03:01.697Z,22.10
2019-06-27T16:05:31.848Z,24.20
2019-06-27T16:08:01.813Z,25.11
2019-06-27T16:10:32.068Z,25.66
2019-06-27T16:13:02.804Z,25.92
2019-06-27T16:15:33.253Z,27.13
2019-06-27T16:18:03.447Z,25.69
2019-06-27T16:20:33.382Z,25.36
2019-06-27T16:23:03.365Z,25.04
2019-06-27T16:25:33.565Z,27.58
2019-06-27T16:28:03.759Z,24.42
2019-06-27T16:30:33.783Z,29.38
2019-06-27T16:33:03.803Z,24.74
2019-06-27T16:35:33.704Z,23.26
2019-06-27T16:38:03.712Z,23.77
2019-06-27T16:40:33.764Z,26.67
2019-06-27T16:43:03.778Z,23.12
2019-06-27T16:45:33.779Z,25.51
2019-06-27T16:48:03.794Z,23.95
2019-06-27T16:50:33.799Z,25.71
2019-06-27T16:53:03.858Z,24.57
2019-06-27T16:55:34.275Z,24.10
2019-06-27T16:58:04.359Z,24.24
2019-06-27T17:00:34.499Z,27.15
2019-06-27T17:03:04.519Z,24.85
2019-06-27T17:05:34.473Z,25.61
2019-06-27T17:08:04.488Z,25.50
2019-06-27T17:10:34.741Z,25.24
2019-06-27T17:13:05.181Z,24.96
2019-06-27T17:15:35.837Z,26.55
2019-06-27T17:18:06.869Z,24.54
2019-06-27T17:20:36.893Z,25.45
2019-06-27T17:23:06.827Z,25.49
2019-06-27T17:25:36.828Z,25.68
2019-06-27T17:28:06.836Z,24.97
2019-06-27T17:30:36.771Z,26.30
2019-06-27T17:33:06.770Z,26.68
2019-06-27T17:35:38.187Z,26.36
2019-06-27T17:38:08.269Z,27.28
2019-06-27T17:40:38.722Z,26.13
2019-06-27T17:43:08.706Z,26.35
2019-06-27T17:45:38.641Z,26.36
2019-06-27T17:48:08.555Z,26.28
2019-06-27T17:50:38.508Z,26.66
2019-06-27T17:53:08.482Z,29.33
2019-06-27T17:55:41.057Z,26.37
2019-06-27T17:58:11.201Z,27.47
2019-06-27T18:00:41.428Z,27.80
2019-06-27T18:03:11.938Z,27.56
2019-06-27T18:05:43.349Z,27.69
2019-06-27T18:08:13.348Z,26.40
2019-06-27T18:10:43.267Z,28.11
2019-06-27T18:13:13.256Z,27.22
2019-06-27T18:15:43.578Z,27.97
2019-06-27T18:18:13.501Z,29.59
2019-06-27T18:20:43.446Z,30.14
2019-06-27T18:23:13.431Z,28.21
2019-06-27T18:25:43.363Z,28.07
2019-06-27T18:28:13.329Z,28.27
2019-06-27T18:30:43.334Z,29.71
2019-06-27T18:33:13.237Z,28.33
2019-06-27T18:35:43.351Z,28.81
2019-06-27T18:38:13.355Z,28.08
2019-06-27T18:40:43.537Z,27.79
2019-06-27T18:43:13.653Z,28.34
2019-06-27T18:45:43.749Z,27.81
2019-06-27T18:48:13.798Z,27.60
2019-06-27T18:50:43.844Z,27.66
2019-06-27T18:53:13.772Z,28.21
2019-06-27T18:55:43.784Z,28.69
2019-06-27T18:58:13.768Z,29.17
2019-06-27T19:00:43.818Z,28.68
2019-06-27T19:03:13.878Z,28.16
2019-06-27T19:05:43.854Z,27.87
2019-06-27T19:08:14.049Z,28.72
2019-06-27T19:10:44.157Z,28.55
2019-06-27T19:13:14.176Z,28.16
2019-06-27T19:15:44.255Z,29.31
2019-06-27T19:18:32.039Z,28.92
2019-06-27T19:21:04.565Z,28.86
2019-06-27T19:23:41.712Z,28.70
2019-06-27T19:26:11.641Z,28.33
2019-06-27T19:28:41.576Z,29.09
2019-06-27T19:31:11.495Z,28.66
2019-06-27T19:33:41.502Z,28.44
2019-06-27T19:36:11.913Z,28.93
2019-06-27T19:38:41.893Z,28.59
2019-06-27T19:41:11.931Z,29.84
2019-06-27T19:43:41.938Z,29.12
2019-06-27T19:46:11.953Z,29.03
2019-06-27T19:48:45.526Z,28.78
2019-06-27T19:51:14.603Z,29.77
2019-06-27T19:53:47.679Z,28.78
2019-06-27T19:56:18.827Z,28.97
2019-06-27T19:58:50.732Z,29.63
2019-06-27T20:01:24.362Z,30.07
2019-06-27T20:03:54.432Z,29.24
2019-06-27T20:06:24.365Z,29.16
2019-06-27T20:08:54.318Z,29.52
2019-06-27T20:11:24.228Z,29.91
2019-06-27T20:13:54.225Z,29.71
2019-06-27T20:16:25.168Z,30.58
2019-06-27T20:18:55.493Z,30.47
2019-06-27T20:21:25.417Z,30.80
2019-06-27T20:23:55.475Z,31.29
2019-06-27T20:26:25.416Z,30.99
2019-06-27T20:28:55.341Z,31.17
2019-06-27T20:31:25.292Z,30.94
2019-06-27T20:33:55.210Z,31.07
2019-06-27T20:36:25.369Z,31.11
2019-06-27T20:38:55.592Z,31.87
2019-06-27T20:41:29.116Z,32.04
2019-06-27T20:43:57.332Z,32.58
2019-06-27T20:46:29.723Z,32.55
2019-06-27T20:49:02.016Z,33.00
2019-06-27T20:51:32.114Z,32.26
2019-06-27T20:54:05.099Z,33.07
2019-06-27T20:56:36.119Z,34.27
2019-06-27T20:59:06.208Z,33.14
2019-06-27T21:01:36.616Z,32.81
2019-06-27T21:04:06.949Z,32.95
2019-06-27T21:06:37.537Z,32.99
2019-06-27T21:09:08.054Z,33.32
2019-06-27T21:11:38.268Z,33.29
2019-06-27T21:14:08.442Z,33.71
2019-06-27T21:16:38.516Z,33.56
2019-06-27T21:19:10.557Z,33.95
2019-06-27T21:21:41.080Z,33.88
2019-06-27T21:24:11.280Z,34.44
2019-06-27T21:26:45.772Z,34.33
2019-06-27T21:29:18.821Z,34.35
2019-06-27T21:31:49.274Z,34.76
2019-06-27T21:34:20.146Z,35.45
2019-06-27T21:36:51.306Z,35.68
2019-06-27T21:39:24.616Z,36.13
2019-06-27T21:41:56.018Z,36.45
2019-06-27T21:44:26.308Z,36.50
2019-06-27T21:47:00.549Z,36.89
2019-06-27T21:49:30.669Z,37.28
2019-06-27T21:52:00.888Z,37.94
2019-06-27T21:54:32.154Z,38.55
2019-06-27T21:57:02.268Z,38.85
2019-06-27T21:59:32.327Z,38.85
2019-06-27T22:02:03.869Z,39.66
2019-06-27T22:04:34.064Z,39.56
2019-06-27T22:07:04.289Z,40.53
2019-06-27T22:09:35.024Z,40.84
2019-06-27T22:12:05.227Z,41.37
2019-06-27T22:14:35.863Z,41.32
2019-06-27T22:17:06.852Z,41.55
2019-06-27T22:19:38.472Z,42.48
2019-06-27T22:22:09.638Z,42.27
2019-06-27T22:25:07.880Z,43.17
2019-06-27T22:27:40.401Z,43.45
2019-06-27T22:30:12.563Z,43.66
2019-06-27T22:32:48.764Z,44.27
2019-06-27T22:35:21.193Z,44.32
2019-06-27T22:38:11.052Z,44.14
2019-06-27T22:40:59.630Z,44.89
2019-06-27T22:43:47.830Z,45.06
2019-06-27T22:46:35.982Z,45.63
2019-06-27T22:49:07.274Z,45.96
2019-06-27T22:52:18.957Z,46.17
2019-06-27T22:54:52.255Z,46.51
2019-06-27T22:57:23.203Z,46.53
2019-06-27T22:59:55.362Z,46.57
2019-06-27T23:02:25.716Z,47.16
2019-06-27T23:04:56.240Z,47.15
2019-06-27T23:07:26.441Z,47.40
2019-06-27T23:09:57.598Z,48.00
2019-06-27T23:12:29.536Z,47.96
2019-06-27T23:15:01.448Z,48.19
2019-06-27T23:17:31.771Z,48.71
2019-06-27T23:20:03.257Z,49.14
2019-06-27T23:22:33.657Z,49.56
2019-06-27T23:25:04.203Z,49.76
2019-06-27T23:27:34.611Z,49.72
2019-06-27T23:30:05.040Z,50.36
2019-06-27T23:32:35.859Z,50.49
2019-06-27T23:35:08.638Z,51.19
2019-06-27T23:37:39.871Z,51.06
2019-06-27T23:40:14.686Z,50.92
2019-06-27T23:42:43.826Z,51.44
2019-06-27T23:45:15.620Z,51.88
2019-06-27T23:47:46.528Z,51.65
2019-06-27T23:50:16.941Z,52.04
2019-06-27T23:52:48.304Z,52.26
2019-06-27T23:55:19.100Z,52.35
2019-06-27T23:57:49.559Z,52.13
